Terminal Aerodrome Forecast
Issued by NWS Brownsville, TX

Current Version | Previous Version | Text Only | Print | Product List | Glossary On
Versions: 1 2 3 4 5 6 7 8 9 10 11 12
349
FTUS44 KBRO 111122
TAFMFE
TAF
KMFE 111122Z 1112/1212 15008KT P6SM SKC
     FM111500 17014KT P6SM SKC
     FM111800 17015G24KT P6SM SKC
     FM120300 16010KT P6SM SKC=

USA.gov is the U.S. government's official web portal to all federal, state and local government web resources and services.